Time;durP1;ratioP1;P1;durP2;ratioP2;P2;SDS_P1;SDS_P2;PMS_P1;PMS_P2;Temp;Humidity;BMP_temperature;BMP_pressure;BME280_temperature;BME280_humidity;BME280_pressure;Samples;Min_cycle;Max_cycle;Signal;HPM_P1;HPM_P2
2021/04/15 00:00:16;;;;;;;7.50;5.00;;;;;;;7.31;54.15;100199.81;5050960;28;20036;-22
2021/04/15 00:02:41;;;;;;;6.85;4.57;;;;;;;7.19;53.43;100176.50;5068879;28;20021;-23
2021/04/15 00:05:10;;;;;;;6.28;3.78;;;;;;;7.30;53.26;100179.63;5050773;28;20035;-22
2021/04/15 00:07:35;;;;;;;5.47;3.65;;;;;;;7.38;54.80;100174.19;5068872;28;20028;-23
2021/04/15 00:10:01;;;;;;;8.05;4.30;;;;;;;7.39;53.38;100183.75;5068779;28;20470;-23
2021/04/15 00:12:27;;;;;;;7.53;4.05;;;;;;;7.37;52.91;100183.94;5050242;28;20515;-21
2021/04/15 00:14:52;;;;;;;6.20;4.60;;;;;;;7.27;53.12;100185.31;5068879;28;20032;-23
2021/04/15 00:17:18;;;;;;;7.70;5.18;;;;;;;7.20;53.20;100178.13;5068515;28;20024;-22
2021/04/15 00:19:43;;;;;;;7.63;4.95;;;;;;;7.18;53.67;100174.84;5068824;28;20033;-23
2021/04/15 00:22:10;;;;;;;6.15;3.67;;;;;;;7.13;53.33;100166.69;5068397;28;20028;-23
2021/04/15 00:24:35;;;;;;;8.07;4.22;;;;;;;7.17;54.04;100167.94;5068640;28;20127;-22
2021/04/15 00:27:01;;;;;;;7.95;5.07;;;;;;;7.25;52.88;100174.88;5068369;28;20099;-23
2021/04/15 00:29:27;;;;;;;6.65;4.03;;;;;;;7.06;53.60;100172.94;5068403;28;20055;-23
2021/04/15 00:31:52;;;;;;;7.18;4.50;;;;;;;7.18;52.82;100166.09;5068230;28;20511;-23
2021/04/15 00:34:18;;;;;;;7.80;4.72;;;;;;;7.24;52.98;100165.31;5068269;28;20409;-22
2021/04/15 00:36:44;;;;;;;7.75;4.88;;;;;;;7.11;53.32;100174.00;5068370;28;20403;-23
2021/04/15 00:39:10;;;;;;;6.75;4.28;;;;;;;6.87;53.31;100179.75;5068280;28;20032;-22
2021/04/15 00:41:35;;;;;;;8.00;4.57;;;;;;;6.83;52.45;100156.25;5068224;28;20405;-20
2021/04/15 00:44:01;;;;;;;6.72;4.07;;;;;;;7.04;52.69;100184.53;5050219;28;20159;-22
2021/04/15 00:46:46;;;;;;;7.13;4.65;;;;;;;7.06;52.75;100192.31;5067754;28;20043;-23
2021/04/15 00:49:14;;;;;;;7.43;3.90;;;;;;;6.91;51.85;100162.44;5067910;28;20045;-22
2021/04/15 00:51:41;;;;;;;;;;;;;;;6.90;53.57;100182.00;5050225;28;20044;-23
2021/04/15 00:54:08;;;;;;;6.63;4.25;;;;;;;6.84;53.06;100173.81;5049536;28;20007;-22
2021/04/15 00:56:33;;;;;;;6.25;3.70;;;;;;;6.92;52.03;100182.63;5049865;28;20025;-23
2021/04/15 00:58:59;;;;;;;6.35;3.97;;;;;;;6.88;52.37;100184.00;5067746;28;20376;-22
2021/04/15 01:01:25;;;;;;;7.22;4.50;;;;;;;6.90;52.44;100185.44;5050123;28;20028;-23
2021/04/15 01:03:50;;;;;;;7.32;4.15;;;;;;;6.69;53.22;100186.31;5049691;28;20064;-23
2021/04/15 01:06:16;;;;;;;7.80;4.13;;;;;;;6.72;53.47;100180.63;5067280;28;20032;-23
2021/04/15 01:08:41;;;;;;;7.15;3.90;;;;;;;6.56;53.36;100164.97;5067558;28;20493;-23
2021/04/15 01:11:17;;;;;;;6.55;3.70;;;;;;;6.75;54.04;100200.63;5049610;28;20085;-23
2021/04/15 01:13:46;;;;;;;5.30;3.38;;;;;;;6.73;53.74;100192.06;5067447;28;20043;-23
2021/04/15 01:16:26;;;;;;;6.88;4.13;;;;;;;6.76;52.63;100197.81;5067645;28;20025;-22
2021/04/15 01:19:20;;;;;;;6.65;3.80;;;;;;;6.68;53.70;100205.03;5067478;28;20078;-23
2021/04/15 01:22:13;;;;;;;5.90;3.47;;;;;;;6.58;54.37;100202.72;5067507;28;20112;-23
2021/04/15 01:24:43;;;;;;;6.85;3.83;;;;;;;6.57;55.10;100193.13;5049506;28;20526;-22
2021/04/15 01:27:27;;;;;;;6.30;3.72;;;;;;;6.63;53.85;100197.66;5067399;28;20028;-23
2021/04/15 01:29:55;;;;;;;5.05;3.10;;;;;;;6.66;53.52;100186.69;5067684;28;20544;-23
2021/04/15 01:32:23;;;;;;;6.40;3.80;;;;;;;6.58;54.11;100197.44;5066987;28;20447;-22
2021/04/15 01:35:18;;;;;;;;;;;;;;;6.62;53.84;100190.75;5049614;28;20041;-22
2021/04/15 01:37:46;;;;;;;7.10;3.58;;;;;;;6.59;54.04;100188.44;5045198;28;19912;-23
2021/04/15 01:40:26;;;;;;;5.88;3.45;;;;;;;6.55;54.04;100201.25;5066826;28;20024;-22
2021/04/15 01:43:03;;;;;;;6.45;4.30;;;;;;;6.43;54.67;100177.09;5049562;28;20061;-22
2021/04/15 01:45:28;;;;;;;6.65;3.88;;;;;;;6.40;55.30;100196.03;5050270;28;20109;-24
2021/04/15 01:48:14;;;;;;;5.78;3.25;;;;;;;6.44;54.12;100197.28;5032849;28;20040;-22
2021/04/15 01:50:45;;;;;;;7.70;4.28;;;;;;;6.43;55.24;100203.56;5049031;28;20105;-22
2021/04/15 01:53:50;;;;;;;6.38;3.75;;;;;;;6.41;55.00;100191.53;5048863;28;20489;-22
2021/04/15 01:56:25;;;;;;;7.20;4.10;;;;;;;6.32;54.81;100156.41;4968957;28;20044;-22
2021/04/15 01:59:08;;;;;;;6.43;3.67;;;;;;;6.50;54.95;100182.47;5023057;28;20041;-21
2021/04/15 02:01:35;;;;;;;7.15;4.10;;;;;;;6.57;54.65;100193.13;5032285;28;20036;-23
2021/04/15 02:04:04;;;;;;;7.13;3.80;;;;;;;6.57;54.67;100187.81;5049184;28;20472;-23
2021/04/15 02:06:30;;;;;;;6.65;3.97;;;;;;;6.31;55.37;100180.44;5032593;28;20115;-23
2021/04/15 02:09:15;;;;;;;7.22;3.97;;;;;;;6.76;54.65;100199.59;5048886;28;20111;-23
2021/04/15 02:11:47;;;;;;;7.05;3.88;;;;;;;6.54;54.40;100196.97;5048458;28;20044;-23
2021/04/15 02:14:17;;;;;;;6.82;3.78;;;;;;;6.54;54.37;100193.47;5066791;28;20028;-23
2021/04/15 02:16:44;;;;;;;5.45;3.47;;;;;;;6.64;53.99;100209.91;5016338;28;20044;-22
2021/04/15 02:19:29;;;;;;;6.90;3.70;;;;;;;6.47;54.76;100179.38;5032363;28;20036;-22
2021/04/15 02:22:15;;;;;;;6.75;4.10;;;;;;;6.54;54.96;100196.97;5034707;28;20063;-23
2021/04/15 02:24:47;;;;;;;6.82;3.70;;;;;;;6.75;55.11;100190.84;5049448;28;20504;-22
2021/04/15 02:27:16;;;;;;;5.20;3.08;;;;;;;6.66;54.63;100183.22;5032797;28;20081;-22
2021/04/15 02:29:44;;;;;;;6.28;4.18;;;;;;;6.63;54.02;100206.44;5032688;28;20043;-23
2021/04/15 02:32:18;;;;;;;5.53;3.25;;;;;;;6.43;55.16;100208.88;5066534;28;20032;-23
2021/04/15 02:34:46;;;;;;;7.53;3.70;;;;;;;6.55;54.84;100217.16;5032727;28;20032;-22
2021/04/15 02:37:20;;;;;;;7.15;3.95;;;;;;;6.49;54.56;100194.06;5048678;28;20032;-23
2021/04/15 02:39:48;;;;;;;6.70;4.05;;;;;;;6.69;53.46;100212.00;5032845;28;20123;-22
2021/04/15 02:42:19;;;;;;;6.35;3.92;;;;;;;6.55;54.95;100195.94;5048853;28;20750;-22
2021/04/15 02:44:52;;;;;;;6.95;4.20;;;;;;;6.47;54.47;100203.22;5049809;28;20861;-22
2021/04/15 02:47:21;;;;;;;6.60;3.67;;;;;;;6.20;54.07;100202.94;5036439;28;20043;-22
2021/04/15 02:49:47;;;;;;;6.88;3.90;;;;;;;6.19;55.30;100191.53;5036002;28;20040;-23
2021/04/15 02:52:33;;;;;;;5.30;3.42;;;;;;;6.32;54.09;100198.78;5035586;28;20060;-23
2021/04/15 02:55:02;;;;;;;7.47;4.13;;;;;;;6.33;54.64;100187.16;5035897;28;20028;-22
2021/04/15 02:57:58;;;;;;;5.72;3.88;;;;;;;6.57;54.15;100224.91;5035742;28;20085;-23
2021/04/15 03:00:29;;;;;;;6.65;4.45;;;;;;;6.46;53.99;100210.34;5051983;28;20021;-23
2021/04/15 03:03:10;;;;;;;6.47;4.03;;;;;;;6.65;53.65;100235.41;5035762;28;20059;-22
2021/04/15 03:05:41;;;;;;;6.70;3.55;;;;;;;6.72;53.63;100227.50;5035531;28;20068;-23
2021/04/15 03:08:06;;;;;;;5.90;3.95;;;;;;;6.62;52.55;100227.84;5051751;28;20813;-20
2021/04/15 03:10:33;;;;;;;6.55;3.50;;;;;;;6.50;53.60;100239.91;5035513;28;20111;-22
2021/04/15 03:13:06;;;;;;;6.75;3.78;;;;;;;6.50;53.31;100235.47;5035292;28;20032;-22
2021/04/15 03:15:33;;;;;;;6.97;4.03;;;;;;;6.17;53.49;100216.53;5052146;28;20024;-23
2021/04/15 03:18:00;;;;;;;7.13;4.32;;;;;;;6.31;53.03;100205.06;5034708;28;20089;-22
2021/04/15 03:20:36;;;;;;;5.93;3.40;;;;;;;6.48;53.69;100233.97;5051764;28;20032;-23
2021/04/15 03:23:12;;;;;;;5.47;3.40;;;;;;;6.38;52.35;100245.72;5035121;28;20033;-23
2021/04/15 03:25:37;;;;;;;6.05;3.58;;;;;;;6.25;53.47;100240.25;5036455;28;20028;-22
2021/04/15 03:28:06;;;;;;;5.55;3.10;;;;;;;6.28;53.67;100252.31;5035102;28;20028;-23
2021/04/15 03:30:56;;;;;;;5.28;3.00;;;;;;;6.21;53.12;100253.06;5070160;28;20132;-23
2021/04/15 03:33:47;;;;;;;5.35;3.13;;;;;;;6.22;53.27;100256.53;5051614;28;20031;-23
2021/04/15 03:36:42;;;;;;;5.38;3.45;;;;;;;6.17;53.63;100235.91;5027440;28;20032;-23
2021/04/15 03:39:19;;;;;;;5.18;3.20;;;;;;;6.20;53.07;100243.47;5036087;28;20059;-22
2021/04/15 03:41:45;;;;;;;7.60;3.78;;;;;;;6.19;53.82;100235.69;5035351;28;20108;-21
2021/04/15 03:44:25;;;;;;;5.07;2.72;;;;;;;6.13;53.53;100241.75;5051521;28;20060;-22
2021/04/15 03:46:55;;;;;;;5.88;3.33;;;;;;;6.10;53.99;100242.94;5051324;28;20033;-22
2021/04/15 03:49:24;;;;;;;7.40;3.75;;;;;;;6.24;53.24;100246.56;5051169;28;20071;-22
2021/04/15 03:51:51;;;;;;;5.78;3.13;;;;;;;6.04;53.56;100241.03;5034580;28;20078;-23
2021/04/15 03:54:20;;;;;;;4.50;3.05;;;;;;;6.06;53.71;100249.63;5034481;28;20029;-22
2021/04/15 03:56:46;;;;;;;;;;;;;;;6.19;52.55;100254.25;5035270;28;20101;-23
2021/04/15 03:59:34;;;;;;;5.68;3.55;;;;;;;6.24;53.16;100265.94;5051300;28;19913;-22
2021/04/15 04:02:01;;;;;;;;;;;;;;;6.06;53.31;100267.34;5054316;28;20031;-23
2021/04/15 04:04:44;;;;;;;5.88;3.75;;;;;;;6.20;53.42;100261.19;5050618;28;20100;-23
2021/04/15 04:07:23;;;;;;;7.55;3.40;;;;;;;6.12;53.19;100270.06;5068897;28;20035;-22
2021/04/15 04:09:53;;;;;;;6.05;3.80;;;;;;;6.08;53.94;100260.84;5051501;28;20093;-22
2021/04/15 04:12:27;;;;;;;5.22;3.17;;;;;;;6.23;53.45;100276.69;5034490;28;20093;-23
2021/04/15 04:15:20;;;;;;;5.25;3.20;;;;;;;6.34;52.81;100291.31;5034704;28;20024;-23
2021/04/15 04:18:00;;;;;;;6.30;3.40;;;;;;;6.33;52.65;100289.66;5050735;28;20485;-23
2021/04/15 04:20:29;;;;;;;5.70;3.50;;;;;;;6.28;53.19;100287.56;5068125;28;20085;-22
2021/04/15 04:23:04;;;;;;;6.50;3.08;;;;;;;6.34;52.33;100293.97;5050779;28;20029;-23
2021/04/15 04:25:42;;;;;;;5.75;3.30;;;;;;;6.27;52.38;100288.56;5068551;28;20035;-22
2021/04/15 04:28:20;;;;;;;5.13;2.90;;;;;;;6.15;53.60;100290.03;5034881;28;20021;-22
2021/04/15 04:30:49;;;;;;;5.00;3.10;;;;;;;6.27;53.28;100288.56;5034654;28;20032;-22
2021/04/15 04:33:16;;;;;;;5.57;3.13;;;;;;;6.28;52.94;100295.50;5034257;28;20043;-22
2021/04/15 04:35:44;;;;;;;6.68;3.30;;;;;;;6.27;53.44;100267.38;5050466;28;20566;-23
2021/04/15 04:38:10;;;;;;;4.85;2.85;;;;;;;6.37;54.01;100286.44;5034183;28;20083;-23
2021/04/15 04:40:43;;;;;;;6.65;2.97;;;;;;;6.28;53.07;100284.91;5050243;28;20800;-23
2021/04/15 04:43:13;;;;;;;5.45;3.22;;;;;;;6.31;52.69;100303.06;5034734;28;20397;-22
2021/04/15 04:45:39;;;;;;;5.35;3.08;;;;;;;6.50;52.08;100309.63;5050391;28;20068;-22
2021/04/15 04:48:29;;;;;;;5.07;2.85;;;;;;;6.63;52.00;100309.78;5050005;28;20035;-22
2021/04/15 04:51:03;;;;;;;4.47;2.65;;;;;;;6.31;51.62;100303.06;5067775;28;20126;-22
2021/04/15 04:53:51;;;;;;;5.30;2.72;;;;;;;6.47;51.61;100309.19;5034687;28;20111;-21
2021/04/15 04:56:26;;;;;;;5.60;3.30;;;;;;;6.34;52.13;100300.06;5034414;28;20056;-22
2021/04/15 04:58:57;;;;;;;5.68;2.80;;;;;;;6.64;51.75;100300.03;5033560;28;20472;-22
2021/04/15 05:01:22;;;;;;;5.15;3.00;;;;;;;6.74;52.50;100316.44;5033503;28;20405;-23
2021/04/15 05:03:48;;;;;;;5.53;3.13;;;;;;;6.69;51.39;100300.25;5049831;28;20480;-23
2021/04/15 05:06:23;;;;;;;5.70;3.58;;;;;;;6.88;52.42;100327.16;5067605;28;20125;-23
2021/04/15 05:09:30;;;;;;;5.72;3.08;;;;;;;7.03;51.65;100325.28;5049256;28;20031;-22
2021/04/15 05:11:56;;;;;;;8.65;5.28;;;;;;;6.96;52.52;100324.41;5048802;28;20036;-22
2021/04/15 05:14:26;;;;;;;7.05;3.88;;;;;;;6.92;51.70;100320.47;5049506;28;20048;-22
2021/04/15 05:17:06;;;;;;;6.60;3.35;;;;;;;7.01;51.53;100335.28;5049429;28;20020;-21
2021/04/15 05:19:34;;;;;;;9.50;4.88;;;;;;;7.00;52.01;100315.06;5067521;28;20036;-22
2021/04/15 05:21:59;;;;;;;8.20;4.22;;;;;;;7.17;52.25;100332.38;5049561;28;20459;-21
2021/04/15 05:24:32;;;;;;;6.22;3.28;;;;;;;6.86;51.53;100330.00;5033176;28;20033;-21
2021/04/15 05:26:57;;;;;;;5.53;3.88;;;;;;;6.96;51.87;100329.69;5049510;28;20036;-22
2021/04/15 05:29:29;;;;;;;6.97;3.95;;;;;;;6.90;51.43;100319.84;5049405;28;20520;-22
2021/04/15 05:31:55;;;;;;;7.93;4.13;;;;;;;7.07;51.52;100331.88;5033088;28;20063;-22
2021/04/15 05:34:23;;;;;;;7.15;4.55;;;;;;;6.94;51.71;100299.91;5032605;28;20036;-22
2021/04/15 05:36:49;;;;;;;6.80;4.00;;;;;;;7.18;51.25;100323.38;5067182;28;20511;-22
2021/04/15 05:39:16;;;;;;;5.47;3.17;;;;;;;7.18;52.72;100327.88;5049563;28;20036;-22
2021/04/15 05:41:46;;;;;;;5.25;3.58;;;;;;;7.17;50.62;100311.16;5032736;28;20039;-22
2021/04/15 05:44:14;;;;;;;4.32;2.65;;;;;;;7.17;50.98;100326.22;5049312;28;20485;-22
2021/04/15 05:46:42;;;;;;;6.75;3.50;;;;;;;7.28;50.16;100338.19;5049398;28;20139;-22
2021/04/15 05:49:09;;;;;;;7.05;3.22;;;;;;;7.30;50.59;100315.75;5033053;28;20036;-22
2021/04/15 05:51:47;;;;;;;6.07;3.60;;;;;;;7.60;51.64;100331.47;5032563;28;20436;-22
2021/04/15 05:54:13;;;;;;;6.43;3.72;;;;;;;7.90;49.39;100336.59;5016137;28;20111;-22
2021/04/15 05:57:00;;;;;;;7.28;3.70;;;;;;;8.26;48.62;100344.38;5032340;28;20061;-22
2021/04/15 05:59:46;;;;;;;5.60;3.13;;;;;;;8.14;49.23;100338.78;5049201;28;20024;-22
2021/04/15 06:02:38;;;;;;;4.72;3.08;;;;;;;7.76;49.13;100317.09;5048976;28;20040;-21
2021/04/15 06:05:22;;;;;;;5.60;3.25;;;;;;;7.94;48.89;100340.50;5034869;28;20025;-22
2021/04/15 06:07:48;;;;;;;8.80;4.93;;;;;;;8.00;49.72;100347.69;5067142;28;20396;-20
2021/04/15 06:10:15;;;;;;;7.70;4.43;;;;;;;7.87;49.49;100321.03;5048988;28;20048;-21
2021/04/15 06:12:55;;;;;;;7.72;3.80;;;;;;;8.05;50.35;100342.63;5032627;28;20425;-21
2021/04/15 06:15:24;;;;;;;6.47;4.20;;;;;;;8.26;49.60;100336.41;5048932;28;20029;-21
2021/04/15 06:18:34;;;;;;;5.90;3.90;;;;;;;8.27;49.22;100337.22;5032744;28;20032;-21
2021/04/15 06:21:03;;;;;;;7.10;4.38;;;;;;;8.14;49.68;100330.81;5066629;28;20071;-21
2021/04/15 06:23:33;;;;;;;5.70;3.38;;;;;;;8.07;49.46;100334.44;5052835;28;20032;-22
2021/04/15 06:25:58;;;;;;;6.68;3.90;;;;;;;8.02;49.67;100311.13;5053264;28;20035;-22
2021/04/15 06:28:32;;;;;;;8.18;4.25;;;;;;;8.10;49.59;100336.72;5036004;28;20032;-21
2021/04/15 06:31:13;;;;;;;6.43;3.65;;;;;;;8.13;49.62;100333.66;5070574;28;20024;-21
2021/04/15 06:33:38;;;;;;;6.93;4.05;;;;;;;8.37;49.58;100327.84;5052575;28;20043;-22
2021/04/15 06:36:06;;;;;;;22.42;10.90;;;;;;;8.20;49.15;100322.06;5052679;28;20029;-22
2021/04/15 06:38:44;;;;;;;9.68;5.55;;;;;;;8.57;50.54;100335.13;5035845;28;20032;-22
2021/04/15 06:41:12;;;;;;;12.48;5.80;;;;;;;8.58;50.52;100334.09;5053149;28;20055;-22
2021/04/15 06:44:06;;;;;;;12.93;7.47;;;;;;;8.73;49.09;100332.13;5070307;28;20107;-21
2021/04/15 06:46:49;;;;;;;12.90;8.25;;;;;;;8.61;49.11;100333.72;5039026;28;20044;-20
2021/04/15 06:49:30;;;;;;;6.93;4.22;;;;;;;8.72;49.30;100341.09;5070317;28;20040;-22
2021/04/15 06:52:22;;;;;;;12.32;7.05;;;;;;;8.38;49.82;100326.03;5070294;28;20114;-22
2021/04/15 06:55:09;;;;;;;10.68;5.85;;;;;;;8.63;48.99;100334.34;5036456;28;20021;-22
2021/04/15 06:57:52;;;;;;;11.60;6.70;;;;;;;8.77;49.69;100336.00;5070159;28;20033;-22
2021/04/15 07:00:26;;;;;;;7.50;4.38;;;;;;;8.48;49.82;100309.72;5069757;28;20523;-21
2021/04/15 07:03:06;;;;;;;9.40;5.00;;;;;;;8.81;50.41;100339.09;5036108;28;20077;-21
2021/04/15 07:05:45;;;;;;;7.93;4.68;;;;;;;8.93;50.20;100329.53;5070146;28;20037;-21
2021/04/15 07:08:47;;;;;;;7.05;4.15;;;;;;;9.11;49.88;100333.41;5036072;28;20064;-22
2021/04/15 07:11:40;;;;;;;10.43;6.30;;;;;;;9.10;49.67;100337.94;5069795;28;20055;-22
2021/04/15 07:14:34;;;;;;;8.43;4.80;;;;;;;9.50;49.14;100331.81;5051479;28;20036;-19
2021/04/15 07:16:59;;;;;;;27.02;14.75;;;;;;;9.73;49.32;100326.06;5069832;28;20033;-21
2021/04/15 07:19:53;;;;;;;13.20;8.55;;;;;;;10.15;48.09;100314.06;5069934;28;20094;-22
2021/04/15 07:22:19;;;;;;;9.00;6.32;;;;;;;10.30;47.20;100321.88;5054366;28;20094;-22
2021/04/15 07:25:02;;;;;;;24.15;13.77;;;;;;;10.76;46.40;100333.34;5069848;28;20423;-22
2021/04/15 07:27:43;;;;;;;10.00;5.47;;;;;;;10.36;47.50;100337.03;5051987;28;20059;-22
2021/04/15 07:30:30;;;;;;;9.73;5.68;;;;;;;10.38;50.34;100334.13;5068539;28;20557;-22
2021/04/15 07:33:33;;;;;;;7.78;4.53;;;;;;;10.50;47.80;100336.97;5069359;28;20123;-22
2021/04/15 07:36:38;;;;;;;7.22;5.00;;;;;;;10.30;48.16;100332.53;5069582;28;20020;-21
2021/04/15 07:39:12;;;;;;;6.53;4.07;;;;;;;10.53;46.93;100331.22;4987586;28;20041;-21
2021/04/15 07:41:48;;;;;;;6.15;4.00;;;;;;;10.57;45.61;100322.56;4987652;28;20023;-22
2021/04/15 07:44:19;;;;;;;7.18;4.70;;;;;;;10.79;46.78;100325.75;5003664;28;20044;-22
2021/04/15 07:46:51;;;;;;;7.63;4.40;;;;;;;11.21;46.42;100302.06;5069151;28;20056;-21
2021/04/15 07:49:42;;;;;;;6.80;4.28;;;;;;;11.65;46.67;100296.78;5069440;28;20900;-22
2021/04/15 07:52:30;;;;;;;5.60;3.72;;;;;;;11.88;43.99;100311.34;5036602;28;20105;-21
2021/04/15 07:55:20;;;;;;;6.38;3.90;;;;;;;11.53;44.06;100315.38;5069076;28;20041;-21
2021/04/15 07:57:58;;;;;;;10.05;5.32;;;;;;;11.43;45.62;100307.03;5068973;28;20488;-22
2021/04/15 08:00:31;;;;;;;8.90;5.18;;;;;;;11.86;44.79;100303.53;5034785;28;20041;-21
2021/04/15 08:03:05;;;;;;;7.25;4.55;;;;;;;11.70;44.31;100317.47;5051546;28;20115;-21
2021/04/15 08:05:57;;;;;;;6.13;3.30;;;;;;;11.71;43.42;100306.56;5068786;28;20036;-21
2021/04/15 08:09:16;;;;;;;5.30;3.25;;;;;;;11.92;42.04;100301.88;5057631;28;20040;-21
2021/04/15 08:12:23;;;;;;;6.22;3.85;;;;;;;12.11;42.86;100300.81;4987317;28;20485;-21
2021/04/15 08:15:24;;;;;;;6.78;4.43;;;;;;;11.97;42.22;100310.88;5069115;28;20177;-21
2021/04/15 08:17:52;;;;;;;5.47;3.55;;;;;;;11.43;42.27;100304.34;5023527;28;20037;-21
2021/04/15 08:20:39;;;;;;;6.32;3.97;;;;;;;11.91;41.42;100310.91;5068695;28;20021;-22
2021/04/15 08:23:42;;;;;;;5.30;3.45;;;;;;;12.09;44.21;100307.44;5068597;28;20036;-21
2021/04/15 08:26:16;;;;;;;5.90;3.40;;;;;;;12.22;41.77;100301.97;5068110;28;20020;-20
2021/04/15 08:29:21;;;;;;;6.25;3.65;;;;;;;12.26;42.04;100308.50;5068430;28;20032;-21
2021/04/15 08:32:05;;;;;;;5.15;3.47;;;;;;;12.97;39.79;100298.88;5050651;28;20032;-22
2021/04/15 08:34:44;;;;;;;4.90;3.10;;;;;;;12.96;38.79;100285.75;5068060;28;20036;-21
2021/04/15 08:37:27;;;;;;;4.15;2.40;;;;;;;13.15;36.85;100300.66;5050100;28;20488;-21
2021/04/15 08:40:16;;;;;;;5.20;2.85;;;;;;;13.71;37.43;100276.28;5050394;28;20020;-21
2021/04/15 08:43:06;;;;;;;5.57;3.30;;;;;;;13.38;38.09;100299.09;5051947;28;20039;-21
2021/04/15 08:45:39;;;;;;;10.05;6.50;;;;;;;12.67;39.27;100296.25;5068460;28;20028;-21
2021/04/15 08:48:22;;;;;;;5.75;3.08;;;;;;;12.97;37.60;100277.47;5068336;28;20028;-21
2021/04/15 08:51:10;;;;;;;6.10;3.53;;;;;;;14.03;36.51;100280.19;5051450;28;20072;-21
2021/04/15 08:53:36;;;;;;;4.55;2.83;;;;;;;14.19;38.96;100283.19;5033875;28;20444;-21
2021/04/15 08:56:07;;;;;;;4.85;2.83;;;;;;;14.42;36.48;100283.13;5068068;28;20655;-22
2021/04/15 08:59:11;;;;;;;4.53;3.00;;;;;;;14.01;37.29;100284.97;5033716;28;20180;-22
2021/04/15 09:01:51;;;;;;;4.80;2.88;;;;;;;13.88;37.33;100258.44;5067686;28;20072;-22
2021/04/15 09:04:22;;;;;;;5.28;3.47;;;;;;;14.00;38.30;100275.31;5033771;28;20028;-22
2021/04/15 09:07:03;;;;;;;4.68;3.05;;;;;;;14.64;38.63;100282.50;5067739;28;20037;-21
2021/04/15 09:09:34;;;;;;;5.60;2.90;;;;;;;14.75;36.58;100278.94;5067831;28;20029;-21
2021/04/15 09:12:51;;;;;;;5.95;2.97;;;;;;;14.56;37.00;100277.50;5067589;28;20103;-21
2021/04/15 09:15:28;;;;;;;6.05;3.38;;;;;;;14.17;36.44;100269.22;4991240;28;20152;-21
2021/04/15 09:18:23;;;;;;;4.85;2.88;;;;;;;14.76;37.46;100271.72;5067444;28;20081;-21
2021/04/15 09:21:20;;;;;;;6.97;3.38;;;;;;;15.13;38.33;100271.25;5064952;28;20024;-21
2021/04/15 09:24:09;;;;;;;4.65;2.53;;;;;;;14.91;34.93;100269.28;4995674;28;20093;-21
2021/04/15 09:26:47;;;;;;;4.70;2.70;;;;;;;14.95;34.94;100264.22;5038277;28;20047;-20
2021/04/15 09:29:33;;;;;;;4.57;2.58;;;;;;;15.00;34.42;100245.53;5067401;28;20059;-21
2021/04/15 09:32:12;;;;;;;4.40;2.70;;;;;;;15.61;35.88;100257.22;5051357;28;20025;-21
2021/04/15 09:34:56;;;;;;;4.18;2.63;;;;;;;15.91;34.95;100258.69;5049577;28;20108;-20
2021/04/15 09:37:39;;;;;;;5.50;3.45;;;;;;;14.96;36.69;100260.50;5049269;28;20052;-21
2021/04/15 09:40:36;;;;;;;5.75;3.28;;;;;;;14.69;35.41;100245.03;5067340;28;20106;-21
2021/04/15 09:43:13;;;;;;;5.85;3.70;;;;;;;14.33;36.50;100252.38;5023065;28;20036;-21
2021/04/15 09:45:45;;;;;;;5.05;3.30;;;;;;;13.83;35.75;100234.19;5067099;28;20488;-21
2021/04/15 09:48:22;;;;;;;4.75;3.00;;;;;;;14.34;35.64;100247.81;5049238;28;20024;-21
2021/04/15 09:51:20;;;;;;;5.10;3.15;;;;;;;15.13;35.05;100247.06;5067466;28;20535;-21
2021/04/15 09:54:18;;;;;;;5.50;3.00;;;;;;;15.19;33.63;100217.34;4996743;28;20071;-21
2021/04/15 09:57:02;;;;;;;4.82;2.90;;;;;;;15.17;36.98;100218.66;5032301;28;20460;-21
2021/04/15 09:59:58;;;;;;;5.35;3.20;;;;;;;15.03;38.06;100234.28;5067198;28;20135;-21
2021/04/15 10:03:01;;;;;;;5.13;2.92;;;;;;;14.91;36.12;100237.03;5066913;28;20492;-20
2021/04/15 10:05:29;;;;;;;7.85;3.60;;;;;;;14.82;34.24;100228.59;5066987;28;20111;-21
2021/04/15 10:07:56;;;;;;;4.65;2.72;;;;;;;14.98;34.08;100220.81;5066930;28;20507;-21
2021/04/15 10:10:34;;;;;;;4.90;2.83;;;;;;;15.27;33.45;100219.63;5032308;28;20036;-21
2021/04/15 10:13:26;;;;;;;14.48;8.48;;;;;;;14.77;34.94;100225.84;5034031;28;20067;-26
2021/04/15 10:15:52;;;;;;;5.68;3.45;;;;;;;14.52;37.09;100217.28;5049866;28;20065;-21
2021/04/15 10:18:35;;;;;;;5.28;3.13;;;;;;;14.53;36.24;100218.94;5048479;28;20029;-21
2021/04/15 10:21:03;;;;;;;5.90;3.60;;;;;;;14.97;38.02;100224.53;5048916;28;20497;-21
2021/04/15 10:24:24;;;;;;;5.18;2.92;;;;;;;14.75;37.93;100222.56;5066596;28;20028;-21
2021/04/15 10:27:15;;;;;;;5.88;3.03;;;;;;;14.97;33.90;100205.72;4984863;28;20197;-20
2021/04/15 10:29:59;;;;;;;4.53;2.50;;;;;;;14.57;34.02;100222.78;5063615;28;20040;-22
2021/04/15 10:33:01;;;;;;;8.10;4.65;;;;;;;14.29;37.07;100219.03;5066548;28;20063;-21
2021/04/15 10:35:39;;;;;;;4.75;3.25;;;;;;;14.15;36.52;100180.13;5066657;28;20028;-21
2021/04/15 10:38:26;;;;;;;5.47;3.20;;;;;;;14.41;35.64;100202.88;5066794;28;20056;-21
2021/04/15 10:41:10;;;;;;;6.25;3.85;;;;;;;14.24;36.20;100200.13;5048895;28;20024;-21
2021/04/15 10:43:57;;;;;;;5.30;3.20;;;;;;;14.76;37.66;100200.03;5066732;28;20060;-20
2021/04/15 10:46:44;;;;;;;4.45;2.92;;;;;;;14.96;35.94;100196.88;5066407;28;20028;-20
2021/04/15 10:49:28;;;;;;;4.63;2.83;;;;;;;15.25;35.53;100197.56;5050143;28;20038;-21
2021/04/15 10:52:01;;;;;;;4.72;2.97;;;;;;;15.23;33.94;100199.69;5066454;28;20079;-20
2021/04/15 10:54:32;;;;;;;4.68;3.08;;;;;;;14.94;35.78;100179.38;5066203;28;20033;-20
2021/04/15 10:57:03;;;;;;;4.97;2.80;;;;;;;14.46;35.08;100197.59;5066284;28;20044;-21
2021/04/15 10:59:37;;;;;;;5.20;3.35;;;;;;;14.58;35.79;100192.19;5048995;28;20419;-21
2021/04/15 11:02:20;;;;;;;7.15;4.65;;;;;;;14.77;37.05;100212.41;5049042;28;20070;-24
2021/04/15 11:04:46;;;;;;;7.75;4.50;;;;;;;15.06;35.25;100190.84;5066437;28;20147;-21
2021/04/15 11:07:26;;;;;;;6.25;4.35;;;;;;;14.63;35.59;100197.66;5069487;28;20040;-21
2021/04/15 11:09:53;;;;;;;7.38;4.25;;;;;;;14.94;36.91;100182.88;5070057;28;20033;-21
2021/04/15 11:12:22;;;;;;;7.82;5.05;;;;;;;14.21;35.51;100179.97;5035268;28;20036;-20
2021/04/15 11:14:51;;;;;;;10.55;5.85;;;;;;;14.12;37.01;100205.56;5035770;28;20035;-21
2021/04/15 11:17:27;;;;;;;6.43;3.95;;;;;;;13.85;36.64;100175.78;5069622;28;20094;-21
2021/04/15 11:20:21;;;;;;;6.03;3.83;;;;;;;14.21;36.86;100197.94;5053418;28;20847;-21
2021/04/15 11:22:56;;;;;;;7.20;4.10;;;;;;;14.23;37.27;100198.53;5054189;28;20028;-20
2021/04/15 11:25:26;;;;;;;6.60;4.47;;;;;;;13.99;37.92;100171.78;5051720;28;20020;-21
2021/04/15 11:27:52;;;;;;;7.55;4.63;;;;;;;13.91;35.18;100196.28;5069642;28;20050;-21
2021/04/15 11:30:38;;;;;;;6.85;4.60;;;;;;;14.11;36.46;100185.16;5069126;28;20396;-21
2021/04/15 11:33:04;;;;;;;5.88;3.45;;;;;;;14.43;36.28;100198.09;5069577;28;20060;-21
2021/04/15 11:35:30;;;;;;;7.22;5.00;;;;;;;13.95;37.22;100178.66;5051861;28;20396;-21
2021/04/15 11:38:16;;;;;;;8.25;5.65;;;;;;;13.91;38.80;100196.28;5051372;28;20067;-21
2021/04/15 11:40:44;;;;;;;6.63;4.60;;;;;;;13.55;37.81;100163.41;5069414;28;20024;-21
2021/04/15 11:43:35;;;;;;;12.00;5.88;;;;;;;13.62;36.07;100177.47;5069362;28;20028;-20
2021/04/15 11:46:17;;;;;;;10.10;5.88;;;;;;;14.02;37.67;100165.97;5042446;28;20037;-22
2021/04/15 11:48:43;;;;;;;10.93;6.05;;;;;;;13.99;36.63;100177.16;5035051;28;20045;-22
2021/04/15 11:51:09;;;;;;;9.88;5.90;;;;;;;13.93;35.46;100175.41;5051203;28;20440;-21
2021/04/15 11:53:53;;;;;;;7.05;4.93;;;;;;;13.93;37.63;100170.06;5051374;28;20113;-22
2021/04/15 11:56:29;;;;;;;8.07;5.68;;;;;;;14.23;37.18;100169.03;5068903;28;20037;-21
2021/04/15 11:58:54;;;;;;;8.20;5.18;;;;;;;13.87;37.57;100168.31;5051214;28;20070;-21
2021/04/15 12:01:31;;;;;;;6.93;5.13;;;;;;;13.93;37.24;100153.16;5034602;28;20119;-21
2021/04/15 12:03:58;;;;;;;8.70;5.72;;;;;;;14.01;36.78;100161.63;5069337;28;20459;-21
2021/04/15 12:06:25;;;;;;;8.43;6.70;;;;;;;14.09;35.86;100165.00;5050924;28;20028;-21
2021/04/15 12:08:51;;;;;;;18.98;11.43;;;;;;;14.29;36.74;100143.91;5050798;28;20694;-21
2021/04/15 12:11:16;;;;;;;9.73;6.82;;;;;;;13.99;35.70;100171.78;5034516;28;20053;-21
2021/04/15 12:14:16;;;;;;;8.05;5.60;;;;;;;13.85;36.91;100147.16;5068870;28;20032;-21